Time;durP1;ratioP1;P1;durP2;ratioP2;P2;SDS_P1;SDS_P2;PMS_P1;PMS_P2;Temp;Humidity;BMP_temperature;BMP_pressure;BME280_temperature;BME280_humidity;BME280_pressure;Samples;Min_cycle;Max_cycle;Signal;HPM_P1;HPM_P2
2020/12/05 00:01:16;;;;;;;1.40;0.80;;;8.00;48.80;;;;;;6122284;23;20156;-69
2020/12/05 00:07:04;;;;;;;1.90;0.73;;;7.80;49.80;;;;;;6121920;23;20214;-69
2020/12/05 00:12:53;;;;;;;1.50;0.60;;;7.80;50.60;;;;;;6121669;23;20214;-69
2020/12/05 00:15:19;;;;;;;1.30;0.57;;;7.90;50.70;;;;;;6121832;23;20187;-69
2020/12/05 00:18:27;;;;;;;2.22;0.70;;;7.90;51.10;;;;;;6122500;23;20429;-69
2020/12/05 00:28:00;;;;;;;1.20;0.50;;;8.00;52.00;;;;;;6151499;23;20139;-69
2020/12/05 00:30:28;;;;;;;1.30;0.70;;;8.10;52.30;;;;;;6150139;23;20283;-69
2020/12/05 00:32:58;;;;;;;1.30;0.60;;;8.20;52.40;;;;;;6151817;22;20163;-69
2020/12/05 00:35:26;;;;;;;2.28;1.00;;;8.10;52.60;;;;;;6151224;23;20151;-69
2020/12/05 00:37:55;;;;;;;1.50;0.70;;;8.00;52.10;;;;;;6151575;23;20157;-69
2020/12/05 00:40:23;;;;;;;1.50;0.70;;;8.00;52.30;;;;;;6151705;23;20507;-69
2020/12/05 00:42:49;;;;;;;2.08;0.73;;;8.00;53.00;;;;;;6151287;23;20152;-69
2020/12/05 00:48:38;;;;;;;1.20;0.50;;;8.00;52.90;;;;;;6150761;23;20152;-69
2020/12/05 00:51:05;;;;;;;1.30;0.60;;;8.00;53.90;;;;;;6150813;23;20184;-69
2020/12/05 00:53:32;;;;;;;1.20;0.60;;;8.10;54.80;;;;;;6151136;23;20148;-69
2020/12/05 00:56:31;;;;;;;1.20;0.50;;;8.20;55.40;;;;;;6151715;23;20153;-69
2020/12/05 00:58:58;;;;;;;1.30;0.60;;;8.20;56.00;;;;;;6151669;23;20152;-69
2020/12/05 01:01:35;;;;;;;1.20;0.50;;;8.30;56.20;;;;;;6151400;22;20179;-70
2020/12/05 01:04:55;;;;;;;1.20;0.50;;;8.50;56.20;;;;;;6151194;23;20605;-69
2020/12/05 01:07:25;;;;;;;1.20;0.55;;;8.60;56.20;;;;;;6150968;23;20599;-70
2020/12/05 01:09:51;;;;;;;1.20;0.50;;;8.70;56.10;;;;;;6151240;22;20164;-69
2020/12/05 01:12:55;;;;;;;1.20;0.50;;;8.80;55.90;;;;;;6151340;23;20227;-69
2020/12/05 01:18:45;;;;;;;1.67;0.60;;;8.90;56.10;;;;;;6151591;23;20139;-69
2020/12/05 01:27:56;;;;;;;1.25;0.60;;;9.00;55.60;;;;;;6151831;23;20598;-69
2020/12/05 01:30:23;;;;;;;1.20;0.55;;;9.00;55.50;;;;;;6151515;23;20634;-69
2020/12/05 01:32:51;;;;;;;1.27;0.60;;;9.00;55.40;;;;;;6152588;23;20209;-70
2020/12/05 01:38:39;;;;;;;1.23;0.50;;;8.90;55.40;;;;;;6151482;23;20151;-69
2020/12/05 01:41:06;;;;;;;1.20;0.50;;;9.00;55.30;;;;;;6151703;23;20188;-70
2020/12/05 01:46:56;;;;;;;1.40;0.60;;;8.90;54.60;;;;;;6152424;23;20147;-69
2020/12/05 01:49:24;;;;;;;1.20;0.50;;;8.90;54.30;;;;;;6152041;23;20171;-70
2020/12/05 01:51:52;;;;;;;1.20;0.50;;;8.90;54.30;;;;;;6152052;23;20542;-70
2020/12/05 01:54:19;;;;;;;1.30;0.50;;;8.80;54.20;;;;;;6151914;23;20164;-69
2020/12/05 02:00:07;;;;;;;1.42;0.70;;;8.70;55.20;;;;;;6152172;23;20171;-69
2020/12/05 02:03:18;;;;;;;1.40;0.60;;;8.70;55.40;;;;;;6152329;23;20152;-70
2020/12/05 02:09:08;;;;;;;1.20;0.50;;;8.50;55.50;;;;;;6151704;23;20298;-69
2020/12/05 02:18:08;;;;;;;1.40;0.52;;;8.60;54.60;;;;;;6151136;23;20166;-69
2020/12/05 02:27:21;;;;;;;1.40;0.50;;;8.40;54.30;;;;;;6150974;23;20182;-70
2020/12/05 02:29:47;;;;;;;1.52;0.90;;;8.30;54.50;;;;;;6151789;23;20210;-69
2020/12/05 02:32:21;;;;;;;1.27;0.60;;;8.20;54.60;;;;;;6151180;23;20654;-70
2020/12/05 02:34:47;;;;;;;1.20;0.47;;;8.20;54.80;;;;;;6151068;23;20159;-70
2020/12/05 02:40:36;;;;;;;1.30;0.60;;;8.10;54.60;;;;;;6150788;23;20151;-69
2020/12/05 02:43:04;;;;;;;1.50;0.98;;;7.90;55.00;;;;;;6151829;22;20164;-70
2020/12/05 02:45:32;;;;;;;1.70;1.08;;;7.90;55.70;;;;;;6151139;23;20239;-69
2020/12/05 02:52:02;;;;;;;1.40;0.85;;;7.80;55.80;;;;;;6151627;23;20178;-70
2020/12/05 02:54:28;;;;;;;1.30;0.70;;;7.70;55.90;;;;;;6150980;23;20163;-70
2020/12/05 02:56:56;;;;;;;1.40;0.60;;;7.70;55.90;;;;;;6151256;22;20241;-70
2020/12/05 02:59:23;;;;;;;1.30;0.60;;;7.60;56.10;;;;;;6151699;23;20160;-69
2020/12/05 03:01:49;;;;;;;1.50;0.60;;;7.50;56.30;;;;;;6151242;23;20164;-69
2020/12/05 03:04:16;;;;;;;1.30;0.50;;;7.50;56.20;;;;;;6150753;23;20183;-69
2020/12/05 03:10:04;;;;;;;1.55;0.75;;;7.20;56.70;;;;;;6150621;23;20466;-69
2020/12/05 03:12:31;;;;;;;3.13;2.00;;;7.10;56.70;;;;;;6150139;23;20191;-70
2020/12/05 03:15:26;;;;;;;4.65;3.92;;;7.10;56.80;;;;;;6151932;23;20152;-70
2020/12/05 03:17:53;;;;;;;8.40;5.15;;;7.00;56.40;;;;;;6150921;23;20191;-69
2020/12/05 03:20:19;;;;;;;6.68;5.22;;;6.90;55.90;;;;;;6150498;23;20164;-69
2020/12/05 03:26:07;;;;;;;8.07;5.72;;;6.70;55.90;;;;;;6149131;23;20494;-70
2020/12/05 03:29:30;;;;;;;10.65;6.57;;;6.60;55.60;;;;;;6151266;23;20461;-70
2020/12/05 03:32:00;;;;;;;10.68;6.93;;;6.60;55.10;;;;;;6150919;23;20187;-70
2020/12/05 03:34:34;;;;;;;10.38;7.07;;;6.50;54.90;;;;;;6151113;23;20444;-70
2020/12/05 03:37:01;;;;;;;10.35;7.43;;;6.40;55.20;;;;;;6150772;23;20147;-70
2020/12/05 03:39:27;;;;;;;9.70;7.75;;;6.40;55.20;;;;;;6151234;23;20166;-69
2020/12/05 03:45:16;;;;;;;12.75;10.65;;;6.40;55.70;;;;;;6151124;23;20140;-69
2020/12/05 03:54:53;;;;;;;15.25;10.50;;;6.10;57.30;;;;;;6151212;23;20453;-70
2020/12/05 03:57:19;;;;;;;14.88;10.25;;;6.10;57.40;;;;;;6151316;23;20188;-70
2020/12/05 03:59:45;;;;;;;14.88;10.40;;;6.10;57.60;;;;;;6151488;23;20469;-70
2020/12/05 04:05:34;;;;;;;15.70;11.65;;;6.00;57.90;;;;;;6150893;23;20213;-69
2020/12/05 04:08:01;;;;;;;16.10;10.68;;;6.00;58.00;;;;;;6150899;23;20563;-70
2020/12/05 04:10:29;;;;;;;14.48;11.20;;;6.00;58.30;;;;;;6151704;23;20156;-70
2020/12/05 04:12:56;;;;;;;14.75;9.45;;;6.00;58.70;;;;;;6151696;23;20176;-70
2020/12/05 04:15:22;;;;;;;13.65;10.13;;;6.00;58.70;;;;;;6151015;23;20231;-70
2020/12/05 04:21:11;;;;;;;12.75;9.60;;;6.00;59.00;;;;;;6150145;23;20186;-69
2020/12/05 04:23:38;;;;;;;13.55;8.95;;;6.00;59.30;;;;;;6151343;23;20182;-69
2020/12/05 04:26:56;;;;;;;13.05;9.57;;;6.00;59.20;;;;;;6148603;23;20191;-69
2020/12/05 04:30:13;;;;;;;10.95;9.13;;;6.10;59.00;;;;;;6122267;23;20172;-69
2020/12/05 04:32:40;;;;;;;11.80;9.05;;;6.10;59.00;;;;;;6121837;23;20692;-69
2020/12/05 04:35:23;;;;;;;11.25;8.13;;;6.10;59.00;;;;;;6121301;23;20188;-70
2020/12/05 04:37:49;;;;;;;11.85;7.85;;;6.10;59.20;;;;;;6121573;23;20183;-69
2020/12/05 04:40:16;;;;;;;10.27;6.90;;;6.10;59.00;;;;;;6121311;23;20666;-69
2020/12/05 04:42:46;;;;;;;14.82;7.45;;;6.10;59.10;;;;;;6121307;23;20252;-70
2020/12/05 04:45:30;;;;;;;10.60;6.88;;;6.20;59.10;;;;;;6121885;23;20153;-69
2020/12/05 04:47:58;;;;;;;9.15;7.10;;;6.20;58.90;;;;;;6121647;23;20149;-70
2020/12/05 04:50:29;;;;;;;8.60;6.57;;;6.20;59.00;;;;;;6122293;23;20155;-69
2020/12/05 04:55:55;;;;;;;8.00;6.13;;;6.20;59.10;;;;;;6121689;23;20155;-70
2020/12/05 04:59:04;;;;;;;7.90;5.82;;;6.20;59.00;;;;;;6121966;23;20149;-69
2020/12/05 05:01:35;;;;;;;7.90;5.30;;;6.20;59.00;;;;;;6121956;23;20616;-69
2020/12/05 05:04:05;;;;;;;8.48;5.07;;;6.20;59.00;;;;;;6121746;23;20604;-70
2020/12/05 05:10:16;;;;;;;5.45;3.63;;;6.30;59.30;;;;;;6120901;23;20139;-69
2020/12/05 05:19:28;;;;;;;4.78;3.63;;;6.30;59.30;;;;;;6121008;23;20183;-70
2020/12/05 05:25:16;;;;;;;6.68;4.07;;;6.30;59.30;;;;;;6120607;23;20156;-70
2020/12/05 05:31:17;;;;;;;3.60;2.80;;;6.30;59.20;;;;;;6120936;23;20241;-70
2020/12/05 05:34:19;;;;;;;3.85;3.00;;;6.30;59.10;;;;;;6121609;23;20149;-69
2020/12/05 05:36:47;;;;;;;4.55;2.80;;;6.30;59.10;;;;;;6121359;23;20157;-69
2020/12/05 05:39:15;;;;;;;3.97;3.20;;;6.30;59.20;;;;;;6121209;23;20153;-71
2020/12/05 05:41:46;;;;;;;3.85;3.25;;;6.30;59.20;;;;;;6121388;23;20165;-69
2020/12/05 05:44:15;;;;;;;4.15;2.95;;;6.30;59.20;;;;;;6121055;23;20149;-70
2020/12/05 05:46:42;;;;;;;3.63;2.90;;;6.30;59.20;;;;;;6121567;23;20575;-70
2020/12/05 05:49:11;;;;;;;3.33;2.63;;;6.30;59.30;;;;;;6121230;23;20153;-70
2020/12/05 05:51:43;;;;;;;2.75;2.00;;;6.30;59.40;;;;;;6121454;23;20200;-70
2020/12/05 05:54:19;;;;;;;2.72;1.80;;;6.20;59.70;;;;;;6120974;23;20175;-69
2020/12/05 06:00:07;;;;;;;2.03;1.20;;;6.20;60.00;;;;;;6120418;23;20152;-70
2020/12/05 06:02:39;;;;;;;1.90;1.20;;;6.20;60.70;;;;;;6120720;23;20168;-70
2020/12/05 06:05:08;;;;;;;2.30;1.20;;;6.20;61.00;;;;;;6121952;23;20184;-70
2020/12/05 06:10:48;;;;;;;2.08;1.45;;;6.20;61.00;;;;;;6122042;23;20255;-70
2020/12/05 06:13:18;;;;;;;2.35;1.35;;;6.20;60.80;;;;;;6122360;23;20495;-69
2020/12/05 06:15:46;;;;;;;2.10;1.42;;;6.20;61.00;;;;;;6121732;23;20304;-69
2020/12/05 06:18:14;;;;;;;2.05;1.20;;;6.20;61.10;;;;;;6122112;23;20161;-70
2020/12/05 06:20:44;;;;;;;2.05;1.23;;;6.10;60.90;;;;;;6121708;23;20161;-70
2020/12/05 06:23:27;;;;;;;2.17;1.30;;;6.10;60.90;;;;;;6122880;23;20164;-69
2020/12/05 06:25:56;;;;;;;3.40;1.75;;;6.10;61.10;;;;;;6122725;23;20192;-69
2020/12/05 06:28:24;;;;;;;2.65;1.33;;;6.10;61.20;;;;;;6122666;23;20155;-70
2020/12/05 06:30:52;;;;;;;2.20;1.48;;;6.10;61.20;;;;;;6148037;23;20521;-69
2020/12/05 06:33:46;;;;;;;4.07;2.75;;;6.10;61.20;;;;;;6151427;23;20156;-69
2020/12/05 06:43:14;;;;;;;6.68;3.08;;;6.10;62.30;;;;;;6183465;23;20214;-69
2020/12/05 06:45:42;;;;;;;5.22;2.65;;;6.10;62.30;;;;;;6182644;23;20163;-70
2020/12/05 06:48:31;;;;;;;4.28;2.88;;;6.10;62.30;;;;;;6183429;23;20152;-70
2020/12/05 06:54:19;;;;;;;2.35;1.67;;;6.30;62.30;;;;;;6151661;23;20645;-70
2020/12/05 06:57:11;;;;;;;2.28;1.10;;;6.30;62.10;;;;;;6151928;23;20172;-69
2020/12/05 06:59:39;;;;;;;3.28;1.50;;;6.30;62.40;;;;;;6150499;23;20152;-69
2020/12/05 07:08:35;;;;;;;2.92;1.95;;;6.40;62.60;;;;;;6182507;23;20680;-70
2020/12/05 07:11:04;;;;;;;1.95;1.30;;;6.40;62.50;;;;;;6153030;23;20195;-70
2020/12/05 07:19:46;;;;;;;2.45;2.10;;;6.50;61.90;;;;;;6150862;23;20147;-70
2020/12/05 07:22:26;;;;;;;4.15;2.85;;;6.50;61.70;;;;;;6151740;23;20148;-69
2020/12/05 07:24:52;;;;;;;3.28;2.25;;;6.60;61.70;;;;;;6151186;23;20518;-70
2020/12/05 07:30:40;;;;;;;3.85;2.97;;;6.60;61.60;;;;;;6151550;23;20187;-69
2020/12/05 07:33:08;;;;;;;4.30;2.83;;;6.70;61.70;;;;;;6150906;23;20195;-70
2020/12/05 07:35:36;;;;;;;2.95;2.50;;;6.70;61.80;;;;;;6151260;23;20243;-70
2020/12/05 07:38:27;;;;;;;3.60;2.30;;;6.70;61.70;;;;;;6151519;23;20168;-70
2020/12/05 07:40:54;;;;;;;3.45;2.45;;;6.70;61.70;;;;;;6151520;23;20152;-69
2020/12/05 07:43:21;;;;;;;4.00;2.05;;;6.70;61.70;;;;;;6150300;23;20156;-70
2020/12/05 07:45:49;;;;;;;2.72;1.75;;;6.70;61.50;;;;;;6151198;23;20599;-69
2020/12/05 07:48:23;;;;;;;4.25;2.08;;;6.70;61.10;;;;;;6151221;23;20152;-69
2020/12/05 07:50:51;;;;;;;3.22;2.35;;;6.80;61.40;;;;;;6150379;23;20154;-70
2020/12/05 07:57:07;;;;;;;3.65;2.30;;;6.80;61.70;;;;;;6151375;23;20139;-69
2020/12/05 07:59:35;;;;;;;3.85;2.35;;;6.80;62.10;;;;;;6150909;23;20179;-70
2020/12/05 08:02:23;;;;;;;2.58;1.65;;;6.90;62.10;;;;;;6151971;23;20175;-70
2020/12/05 08:04:54;;;;;;;3.92;2.20;;;6.80;61.90;;;;;;6151724;22;20629;-69
2020/12/05 08:07:38;;;;;;;3.50;1.90;;;6.80;62.00;;;;;;6150559;22;20160;-70
2020/12/05 08:16:21;;;;;;;2.58;1.80;;;6.90;62.60;;;;;;6150777;23;20868;-70
2020/12/05 08:19:02;;;;;;;3.15;1.80;;;6.90;62.60;;;;;;6150440;23;20498;-70
2020/12/05 08:21:29;;;;;;;2.60;1.77;;;6.90;62.60;;;;;;6150699;23;20155;-70
2020/12/05 08:27:10;;;;;;;3.42;2.13;;;7.10;62.70;;;;;;6150056;23;20171;-69
2020/12/05 08:29:37;;;;;;;4.15;2.97;;;7.10;62.40;;;;;;6148786;23;20184;-69
2020/12/05 08:32:04;;;;;;;4.20;3.20;;;7.10;62.20;;;;;;6150358;23;20183;-69
2020/12/05 08:35:04;;;;;;;3.95;3.20;;;7.10;62.00;;;;;;6150605;23;20152;-70
2020/12/05 08:37:33;;;;;;;6.85;4.32;;;7.20;62.30;;;;;;6150937;23;20155;-70
2020/12/05 08:40:26;;;;;;;6.85;4.95;;;7.20;62.20;;;;;;6150801;23;20591;-70
2020/12/05 08:49:39;;;;;;;4.75;4.00;;;7.20;62.30;;;;;;6150504;23;20513;-69
2020/12/05 08:52:06;;;;;;;8.07;4.20;;;7.20;62.40;;;;;;6150223;23;20530;-70
2020/12/05 08:54:43;;;;;;;5.80;4.55;;;7.20;62.20;;;;;;6150337;23;20174;-70
2020/12/05 08:57:12;;;;;;;5.65;4.13;;;7.20;62.30;;;;;;6150434;23;20605;-70
2020/12/05 09:03:02;;;;;;;8.15;5.55;;;7.20;62.70;;;;;;6150066;23;20147;-70
2020/12/05 09:05:28;;;;;;;6.55;5.55;;;7.20;62.80;;;;;;6151279;23;20448;-70
2020/12/05 09:11:21;;;;;;;7.95;5.60;;;7.20;63.00;;;;;;6149763;23;20598;-70
2020/12/05 09:17:23;;;;;;;7.00;5.50;;;7.20;63.40;;;;;;6149937;23;20140;-69
2020/12/05 09:19:49;;;;;;;6.85;5.55;;;7.30;63.40;;;;;;6149294;23;20163;-69
2020/12/05 09:22:48;;;;;;;6.45;5.38;;;7.30;63.40;;;;;;6149186;23;20168;-69
2020/12/05 09:25:27;;;;;;;7.03;4.70;;;7.40;63.20;;;;;;6149413;23;20571;-70
2020/12/05 09:27:53;;;;;;;6.65;4.72;;;7.50;63.10;;;;;;6150066;23;20206;-70
2020/12/05 09:30:21;;;;;;;5.78;3.83;;;7.50;62.90;;;;;;6149408;23;20188;-69
2020/12/05 09:32:50;;;;;;;7.15;3.95;;;7.60;62.90;;;;;;6149112;22;20712;-70
2020/12/05 09:35:18;;;;;;;5.03;3.38;;;7.60;62.70;;;;;;6149773;23;20172;-70
2020/12/05 09:37:45;;;;;;;2.67;2.08;;;7.60;62.70;;;;;;6150051;22;20164;-69
2020/12/05 09:40:14;;;;;;;2.45;1.80;;;7.60;62.20;;;;;;6149665;23;20517;-70
2020/12/05 09:42:42;;;;;;;2.83;1.90;;;7.60;61.50;;;;;;6150522;23;20496;-70
2020/12/05 09:45:11;;;;;;;3.00;1.85;;;7.60;61.50;;;;;;6150664;23;20665;-69
2020/12/05 09:47:38;;;;;;;2.78;1.95;;;7.60;61.20;;;;;;6150399;23;20629;-69
2020/12/05 09:50:08;;;;;;;4.30;2.30;;;7.60;60.70;;;;;;6151998;23;20160;-70
2020/12/05 09:56:21;;;;;;;7.35;4.18;;;7.60;61.20;;;;;;6152079;23;20182;-70
2020/12/05 09:58:52;;;;;;;4.78;4.28;;;7.60;61.10;;;;;;6149066;23;20168;-70
2020/12/05 10:01:18;;;;;;;8.88;6.35;;;7.70;61.40;;;;;;6151412;22;20167;-70
2020/12/05 10:03:45;;;;;;;8.32;6.68;;;7.70;61.70;;;;;;6151518;23;20164;-70
2020/12/05 10:06:29;;;;;;;7.32;6.20;;;7.70;61.50;;;;;;6151643;23;20152;-69
2020/12/05 10:15:39;;;;;;;7.55;4.88;;;7.60;62.00;;;;;;6150664;23;20160;-70
2020/12/05 10:18:32;;;;;;;5.63;5.13;;;7.60;62.60;;;;;;6152117;23;20507;-69
2020/12/05 10:20:58;;;;;;;6.47;4.65;;;7.50;63.90;;;;;;6151637;23;20152;-70
2020/12/05 10:24:19;;;;;;;5.57;4.70;;;7.50;63.00;;;;;;6151375;23;20206;-70
2020/12/05 10:26:48;;;;;;;7.25;5.47;;;7.50;63.10;;;;;;6150551;23;20160;-70
2020/12/05 10:29:15;;;;;;;5.93;3.50;;;7.50;63.20;;;;;;6151468;22;20248;-69
2020/12/05 10:31:46;;;;;;;9.23;4.80;;;7.50;63.30;;;;;;6149753;23;20198;-70
2020/12/05 10:34:13;;;;;;;5.50;4.15;;;7.50;63.40;;;;;;6152075;23;20209;-70
2020/12/05 10:40:06;;;;;;;3.75;2.60;;;7.50;63.70;;;;;;6151203;23;20556;-70
2020/12/05 10:46:09;;;;;;;3.72;2.72;;;7.50;62.60;;;;;;6151957;23;20139;-69
2020/12/05 10:48:37;;;;;;;3.80;2.83;;;7.50;62.30;;;;;;6151573;23;20263;-69
2020/12/05 10:51:03;;;;;;;5.03;2.88;;;7.50;61.80;;;;;;6151514;23;20148;-70
2020/12/05 10:54:13;;;;;;;4.25;2.85;;;7.50;62.40;;;;;;6150551;23;20230;-69
2020/12/05 10:56:41;;;;;;;4.60;3.10;;;7.50;62.60;;;;;;6151617;23;20198;-70
2020/12/05 10:59:09;;;;;;;4.47;3.20;;;7.50;61.80;;;;;;6151176;23;20163;-70
2020/12/05 11:05:01;;;;;;;5.22;3.63;;;7.50;62.00;;;;;;6150725;23;20154;-70
2020/12/05 11:11:01;;;;;;;7.00;5.22;;;7.50;63.00;;;;;;6151353;23;20190;-70
2020/12/05 11:13:28;;;;;;;6.15;4.15;;;7.50;63.30;;;;;;6151260;23;20185;-70
2020/12/05 11:19:28;;;;;;;4.60;3.28;;;7.50;62.90;;;;;;6151565;23;20586;-70
2020/12/05 11:22:07;;;;;;;3.95;2.83;;;7.50;62.40;;;;;;6151576;23;20191;-70
2020/12/05 11:24:35;;;;;;;4.28;3.45;;;7.40;62.30;;;;;;6150878;22;20190;-70
2020/12/05 11:33:59;;;;;;;6.22;3.55;;;7.30;62.90;;;;;;6253464;22;20197;-70
2020/12/05 11:37:19;;;;;;;5.18;3.60;;;7.10;63.30;;;;;;6244802;23;20647;-69
2020/12/05 11:39:48;;;;;;;4.03;3.28;;;7.00;64.30;;;;;;6245408;23;20169;-70
2020/12/05 11:42:15;;;;;;;6.72;3.92;;;7.00;64.50;;;;;;6245460;23;20165;-69
2020/12/05 11:44:42;;;;;;;5.68;3.33;;;6.90;64.80;;;;;;6245369;23;20166;-70
2020/12/05 11:47:23;;;;;;;5.30;3.53;;;6.90;65.70;;;;;;6245034;23;20234;-69
2020/12/05 11:49:52;;;;;;;8.55;3.35;;;6.90;65.80;;;;;;6245854;23;20223;-70
2020/12/05 11:52:30;;;;;;;3.75;2.88;;;6.80;66.00;;;;;;6245048;23;20192;-69
2020/12/05 11:55:00;;;;;;;4.75;2.80;;;6.80;66.60;;;;;;6244841;23;20157;-70
2020/12/05 11:57:32;;;;;;;3.75;2.47;;;6.70;67.60;;;;;;6232018;23;20501;-70
2020/12/05 11:59:59;;;;;;;4.05;3.40;;;6.60;68.10;;;;;;6244971;23;20158;-69
2020/12/05 12:05:48;;;;;;;3.85;3.10;;;6.40;69.90;;;;;;6244292;23;20176;-70
2020/12/05 12:09:08;;;;;;;4.68;3.60;;;6.30;71.30;;;;;;6245246;23;20146;-69
2020/12/05 12:11:38;;;;;;;3.63;2.80;;;6.30;71.20;;;;;;6120390;23;20214;-70
2020/12/05 12:17:20;;;;;;;4.07;3.25;;;6.20;72.10;;;;;;6121471;23;20543;-69
2020/12/05 12:20:24;;;;;;;3.90;2.63;;;6.20;72.60;;;;;;6120903;23;20160;-69
2020/12/05 12:22:53;;;;;;;4.30;3.15;;;6.10;72.90;;;;;;6121393;23;20153;-69
2020/12/05 12:28:43;;;;;;;4.40;3.90;;;6.00;73.50;;;;;;6120462;23;21060;-69
2020/12/05 12:31:09;;;;;;;4.25;3.13;;;5.90;74.90;;;;;;6120731;23;20680;-70
2020/12/05 12:33:37;;;;;;;4.95;3.40;;;5.90;75.40;;;;;;6136022;23;20200;-70
2020/12/05 12:36:05;;;;;;;3.95;3.55;;;5.90;75.60;;;;;;6149915;23;20209;-69
2020/12/05 12:38:32;;;;;;;8.65;4.53;;;5.80;76.00;;;;;;6150302;23;20167;-69
2020/12/05 12:41:13;;;;;;;5.82;3.85;;;5.80;76.90;;;;;;6149344;22;20148;-70
2020/12/05 12:43:40;;;;;;;6.07;3.08;;;5.70;77.10;;;;;;6149996;23;20258;-69
2020/12/05 12:46:07;;;;;;;7.50;5.32;;;5.70;77.20;;;;;;6149867;23;20538;-70
2020/12/05 12:48:40;;;;;;;8.07;4.60;;;5.60;77.30;;;;;;6150030;23;20174;-70
2020/12/05 12:51:08;;;;;;;6.15;4.13;;;5.50;78.50;;;;;;6150428;23;20198;-69
2020/12/05 12:53:39;;;;;;;5.82;3.65;;;5.50;78.90;;;;;;6149877;23;20550;-70
2020/12/05 12:56:06;;;;;;;4.88;3.70;;;5.50;79.00;;;;;;6150155;23;20172;-72
2020/12/05 12:58:39;;;;;;;4.90;4.05;;;5.40;79.10;;;;;;6149365;22;20166;-71
2020/12/05 13:04:29;;;;;;;5.93;3.75;;;5.40;79.90;;;;;;6150865;23;20155;-70
2020/12/05 13:07:21;;;;;;;4.93;3.35;;;5.40;79.60;;;;;;6151286;23;20254;-70
2020/12/05 13:13:09;;;;;;;8.40;4.05;;;5.30;80.90;;;;;;6150517;23;20198;-70
2020/12/05 13:15:39;;;;;;;5.78;4.07;;;5.30;81.10;;;;;;6151248;23;20183;-70
2020/12/05 13:18:29;;;;;;;5.63;4.43;;;5.40;81.30;;;;;;6152136;22;20155;-70
2020/12/05 13:31:05;;;;;;;5.78;3.20;;;5.50;80.50;;;;;;6151411;23;20155;-70
2020/12/05 13:33:35;;;;;;;4.45;3.13;;;5.60;80.30;;;;;;6150677;23;20195;-70
2020/12/05 13:36:05;;;;;;;5.10;3.40;;;5.60;80.30;;;;;;6151712;22;20598;-70
2020/12/05 13:38:55;;;;;;;6.15;4.38;;;5.60;80.20;;;;;;6152212;23;20474;-70
2020/12/05 13:41:28;;;;;;;5.10;3.75;;;5.60;79.80;;;;;;6152140;23;20183;-70
2020/12/05 13:44:26;;;;;;;6.43;4.22;;;5.60;79.10;;;;;;6147487;23;20156;-70
2020/12/05 13:47:00;;;;;;;5.32;4.00;;;5.60;79.20;;;;;;6152254;23;20523;-70
2020/12/05 13:50:15;;;;;;;5.90;4.32;;;5.70;78.80;;;;;;6151528;23;20250;-70
2020/12/05 13:52:42;;;;;;;7.32;5.00;;;5.70;79.00;;;;;;6151777;23;20176;-70
2020/12/05 13:58:30;;;;;;;5.60;4.78;;;5.80;78.80;;;;;;6151573;23;20150;-70
2020/12/05 14:01:17;;;;;;;7.57;5.43;;;5.80;79.20;;;;;;6151818;23;20167;-70
2020/12/05 14:03:45;;;;;;;7.22;4.50;;;5.90;79.10;;;;;;6152291;23;20152;-70
2020/12/05 14:06:23;;;;;;;6.50;4.93;;;5.90;78.80;;;;;;6151395;23;20191;-70
2020/12/05 14:08:50;;;;;;;5.70;5.10;;;5.90;78.10;;;;;;6151415;23;20158;-70
2020/12/05 14:12:13;;;;;;;7.50;5.85;;;5.90;77.90;;;;;;6151146;23;20164;-70
2020/12/05 14:14:40;;;;;;;7.70;5.30;;;5.90;78.70;;;;;;6150419;23;20160;-70
2020/12/05 14:17:09;;;;;;;6.82;5.30;;;6.00;79.00;;;;;;6151650;22;20238;-71
2020/12/05 14:19:41;;;;;;;6.40;5.03;;;6.00;79.00;;;;;;6151363;23;20326;-71
2020/12/05 14:22:08;;;;;;;5.68;4.75;;;6.00;79.40;;;;;;6151788;22;20163;-70
2020/12/05 14:24:35;;;;;;;5.90;3.95;;;6.00;79.00;;;;;;6152123;23;20148;-70
2020/12/05 14:27:04;;;;;;;5.90;4.57;;;6.00;78.90;;;;;;6150565;23;20226;-70
2020/12/05 14:29:31;;;;;;;7.85;5.25;;;6.00;79.30;;;;;;6151598;23;20156;-70
2020/12/05 14:35:22;;;;;;;6.65;4.50;;;6.10;79.10;;;;;;6149215;23;20340;-70
2020/12/05 14:37:49;;;;;;;6.82;5.00;;;6.10;79.20;;;;;;6150824;23;20218;-70
2020/12/05 14:40:32;;;;;;;6.90;4.72;;;6.00;79.00;;;;;;6152059;23;20148;-70
2020/12/05 14:46:20;;;;;;;5.97;4.28;;;6.10;79.10;;;;;;6150736;23;20459;-70
2020/12/05 14:49:32;;;;;;;6.80;4.43;;;6.00;78.90;;;;;;6151498;23;20214;-70
2020/12/05 14:52:05;;;;;;;7.15;4.88;;;6.00;78.80;;;;;;6150834;23;20602;-70
2020/12/05 14:54:32;;;;;;;6.68;4.35;;;6.00;79.20;;;;;;6151139;23;20158;-70
2020/12/05 15:00:20;;;;;;;6.30;4.15;;;5.90;79.80;;;;;;6150625;23;20569;-70
2020/12/05 15:02:49;;;;;;;6.90;4.97;;;6.00;79.80;;;;;;6149733;23;20190;-73
2020/12/05 15:05:24;;;;;;;6.70;5.18;;;6.00;79.20;;;;;;6151018;23;20152;-70
2020/12/05 15:07:52;;;;;;;8.82;6.00;;;5.90;79.80;;;;;;6151466;23;20152;-70
2020/12/05 15:13:41;;;;;;;7.22;5.57;;;5.90;79.60;;;;;;6150341;23;20607;-70
2020/12/05 15:16:10;;;;;;;14.77;6.32;;;5.90;79.40;;;;;;6150275;22;20617;-70
2020/12/05 15:18:37;;;;;;;7.90;5.97;;;5.90;79.20;;;;;;6150714;23;20614;-70
2020/12/05 15:21:04;;;;;;;8.10;5.75;;;5.90;79.50;;;;;;6151390;23;20164;-70
2020/12/05 15:23:44;;;;;;;9.05;7.18;;;5.90;79.60;;;;;;6151254;23;20171;-69
2020/12/05 15:27:03;;;;;;;7.45;6.15;;;5.90;79.40;;;;;;6146850;23;20158;-70
2020/12/05 15:29:29;;;;;;;8.30;6.50;;;5.80;80.10;;;;;;6151221;23;20156;-70
2020/12/05 15:31:58;;;;;;;11.88;6.40;;;5.80;80.50;;;;;;6150789;23;20200;-70
2020/12/05 15:34:25;;;;;;;8.25;5.50;;;5.70;80.40;;;;;;6149983;22;20536;-71
2020/12/05 15:36:52;;;;;;;9.57;5.50;;;5.70;80.30;;;;;;6149855;23;20164;-70
2020/12/05 15:39:20;;;;;;;8.73;6.05;;;5.60;80.30;;;;;;6150446;23;20160;-70
2020/12/05 15:42:30;;;;;;;9.18;6.78;;;5.60;80.30;;;;;;6151314;23;20156;-70
2020/12/05 15:45:02;;;;;;;7.57;5.95;;;5.50;80.50;;;;;;6152074;23;20163;-70
2020/12/05 15:47:31;;;;;;;9.32;6.78;;;5.60;80.80;;;;;;6150420;23;20681;-70
2020/12/05 15:49:59;;;;;;;9.40;6.90;;;5.50;80.70;;;;;;6151514;23;20466;-70
2020/12/05 15:52:26;;;;;;;7.05;5.10;;;5.60;80.90;;;;;;6150755;23;20180;-71
2020/12/05 15:54:57;;;;;;;11.27;6.25;;;5.60;81.40;;;;;;6151006;23;20202;-70
2020/12/05 15:57:28;;;;;;;9.07;6.45;;;5.50;81.20;;;;;;6151217;23;20187;-70
2020/12/05 16:00:03;;;;;;;9.00;5.65;;;5.50;81.60;;;;;;6151203;23;20152;-70
2020/12/05 16:03:06;;;;;;;8.85;4.93;;;5.60;81.80;;;;;;6147778;23;20163;-70
2020/12/05 16:05:33;;;;;;;7.72;5.32;;;5.60;81.80;;;;;;6149438;22;20666;-70
2020/12/05 16:08:45;;;;;;;10.65;8.40;;;5.60;81.70;;;;;;6149753;23;20485;-70
2020/12/05 16:11:13;;;;;;;11.20;8.18;;;5.60;81.80;;;;;;6150795;23;20188;-70
2020/12/05 16:13:44;;;;;;;12.90;9.40;;;5.60;81.40;;;;;;6149398;23;20176;-71
2020/12/05 16:16:11;;;;;;;10.98;8.68;;;5.60;81.70;;;;;;6148744;23;20187;-71
2020/12/05 16:18:38;;;;;;;13.93;10.15;;;5.60;81.80;;;;;;6149271;23;20205;-70
2020/12/05 16:21:26;;;;;;;11.52;7.90;;;5.60;81.80;;;;;;6150642;22;20195;-70
2020/12/05 16:23:53;;;;;;;13.05;8.82;;;5.60;81.80;;;;;;6151577;23;20153;-70
2020/12/05 16:26:37;;;;;;;9.95;7.43;;;5.60;81.60;;;;;;6151085;23;20152;-70
2020/12/05 16:29:04;;;;;;;8.70;6.72;;;5.70;81.60;;;;;;6151691;23;20443;-70
2020/12/05 16:32:10;;;;;;;12.52;8.48;;;5.70;81.30;;;;;;6151133;23;20151;-70
2020/12/05 16:45:11;;;;;;;19.42;14.43;;;5.50;82.20;;;;;;6150218;23;20147;-70
2020/12/05 16:47:38;;;;;;;21.38;14.07;;;5.50;82.40;;;;;;6150416;22;20665;-70
2020/12/05 16:54:07;;;;;;;15.48;13.43;;;5.50;82.20;;;;;;6150782;23;20263;-70
2020/12/05 16:56:35;;;;;;;15.10;12.00;;;5.50;82.30;;;;;;6150907;23;20154;-70
2020/12/05 17:05:50;;;;;;;14.07;10.98;;;5.40;82.00;;;;;;6150359;23;20178;-70
2020/12/05 17:08:18;;;;;;;12.63;8.50;;;5.40;81.90;;;;;;6150911;23;20467;-70
2020/12/05 17:14:07;;;;;;;13.98;11.40;;;5.30;82.40;;;;;;6150232;23;20248;-69
2020/12/05 17:16:35;;;;;;;14.02;9.73;;;5.30;82.40;;;;;;6150260;23;20669;-70
2020/12/05 17:19:25;;;;;;;21.98;13.95;;;5.20;82.60;;;;;;6150564;23;20301;-70
2020/12/05 17:21:52;;;;;;;46.38;31.00;;;5.30;82.60;;;;;;6151021;23;20148;-70
2020/12/05 17:24:31;;;;;;;57.53;37.45;;;5.20;82.50;;;;;;6150377;23;20148;-70
2020/12/05 17:27:01;;;;;;;59.97;39.13;;;5.20;82.90;;;;;;6150799;23;20159;-70
2020/12/05 17:29:36;;;;;;;29.83;21.55;;;5.20;82.90;;;;;;6150360;23;20463;-70
2020/12/05 17:32:03;;;;;;;40.47;26.17;;;5.20;82.90;;;;;;6150609;23;20164;-69
2020/12/05 17:41:28;;;;;;;21.73;14.88;;;5.10;83.60;;;;;;6150079;23;20236;-70
2020/12/05 17:54:18;;;;;;;32.15;18.80;;;5.00;84.40;;;;;;6150513;23;20186;-70
2020/12/05 17:56:46;;;;;;;35.88;21.92;;;5.10;84.20;;;;;;6150006;23;20231;-70
2020/12/05 17:59:42;;;;;;;22.58;15.25;;;5.10;84.40;;;;;;6149491;23;20210;-69
2020/12/05 18:02:11;;;;;;;22.95;15.45;;;5.10;84.50;;;;;;6151258;23;20462;-70
2020/12/05 18:05:00;;;;;;;18.45;13.43;;;5.10;84.50;;;;;;6151416;23;20227;-70
2020/12/05 18:07:43;;;;;;;16.83;14.68;;;5.10;84.60;;;;;;6152129;23;20183;-69
2020/12/05 18:10:11;;;;;;;21.40;16.23;;;5.20;84.60;;;;;;6145768;23;20473;-71
2020/12/05 18:12:38;;;;;;;18.52;14.45;;;5.20;84.50;;;;;;6151672;23;20180;-70
2020/12/05 18:15:11;;;;;;;21.30;14.95;;;5.20;84.70;;;;;;6151561;23;20205;-70